createdAt,value
2022-09-28T16:38:36.667Z,2.50
2022-09-28T16:39:37.660Z,2.80
2022-09-28T16:40:37.691Z,3.20
2022-09-28T16:41:37.613Z,4.00
2022-09-28T16:42:48.671Z,4.20
2022-09-28T16:43:37.593Z,4.50
2022-09-28T16:44:37.599Z,5.00
2022-09-28T16:45:37.571Z,6.50
2022-09-28T16:46:37.762Z,6.70
2022-09-28T16:47:37.539Z,5.20
2022-09-28T16:48:37.516Z,3.60
2022-09-28T16:49:37.524Z,8.10
2022-09-28T16:50:37.491Z,7.00
2022-09-28T16:51:37.494Z,7.20
2022-09-28T16:52:37.485Z,5.30
2022-09-28T16:53:37.468Z,6.20
2022-09-28T16:54:37.452Z,5.50
2022-09-28T16:55:41.262Z,6.10
2022-09-28T16:56:37.417Z,5.80
2022-09-28T16:57:37.413Z,5.60
2022-09-28T16:58:37.433Z,5.10
2022-09-28T16:59:37.390Z,3.80
2022-09-28T17:00:37.391Z,7.40
2022-09-28T17:01:37.415Z,6.20
2022-09-28T17:02:46.653Z,7.30
2022-09-28T17:03:37.417Z,8.80
2022-09-28T17:04:37.316Z,5.30
2022-09-28T17:05:37.315Z,6.10
2022-09-28T17:06:37.301Z,5.50
2022-09-28T17:07:37.274Z,5.20
2022-09-28T17:08:37.278Z,5.00
2022-09-28T17:09:37.252Z,5.80
2022-09-28T17:10:50.182Z,6.00
2022-09-28T17:11:37.245Z,7.00
2022-09-28T17:12:37.226Z,9.70
2022-09-28T17:13:37.201Z,6.80
2022-09-28T17:14:37.214Z,7.10
2022-09-28T17:15:37.220Z,7.50
2022-09-28T17:17:03.793Z,4.70
2022-09-28T17:17:37.161Z,3.60
2022-09-28T17:18:37.152Z,4.60
2022-09-28T17:19:37.138Z,4.50
2022-09-28T17:20:37.143Z,4.00
2022-09-28T17:21:37.129Z,4.00
2022-09-28T17:22:37.096Z,4.60
2022-09-28T17:23:37.093Z,3.70
2022-09-28T17:24:37.094Z,5.50
2022-09-28T17:25:37.071Z,8.30
2022-09-28T17:26:37.066Z,9.40
2022-09-28T17:27:37.042Z,8.60
2022-09-28T17:28:37.026Z,7.70
2022-09-28T17:29:37.053Z,6.50
2022-09-28T17:30:37.077Z,5.90
2022-09-28T17:31:36.997Z,4.60
2022-09-28T17:32:36.992Z,3.80
2022-09-28T17:33:36.961Z,3.60
2022-09-28T17:34:36.964Z,3.20
2022-09-28T17:35:39.621Z,3.70
2022-09-28T17:36:36.947Z,3.50
2022-09-28T17:37:36.915Z,3.90
2022-09-28T17:38:37.667Z,3.50
2022-09-28T17:39:36.896Z,3.90
2022-09-28T17:40:36.933Z,3.40
2022-09-28T17:41:36.863Z,3.60
2022-09-28T17:42:36.846Z,4.00
2022-09-28T17:43:36.844Z,4.10
2022-09-28T17:44:36.824Z,4.50
2022-09-28T17:45:36.811Z,3.50
2022-09-28T17:46:36.895Z,3.10
2022-09-28T17:47:36.789Z,4.90
2022-09-28T17:48:36.782Z,4.50
2022-09-28T17:49:36.770Z,2.90
2022-09-28T17:50:36.755Z,3.10
2022-09-28T17:51:36.753Z,2.80
2022-09-28T17:52:36.727Z,3.70
2022-09-28T17:53:36.726Z,4.30
2022-09-28T17:54:36.700Z,4.10
2022-09-28T17:55:36.699Z,4.20
2022-09-28T17:56:36.685Z,3.70
2022-09-28T17:57:36.670Z,3.60
2022-09-28T17:58:36.657Z,3.30
2022-09-28T17:59:36.639Z,2.80
2022-09-28T18:00:36.638Z,2.40
2022-09-28T18:01:36.686Z,2.20
2022-09-28T18:02:36.682Z,2.10
2022-09-28T18:03:36.595Z,2.00
2022-09-28T18:04:51.200Z,2.70
2022-09-28T18:05:36.582Z,2.30
2022-09-28T18:06:36.576Z,2.70
2022-09-28T18:07:36.573Z,3.50
2022-09-28T18:08:36.542Z,3.60
2022-09-28T18:09:36.524Z,4.00
2022-09-28T18:10:36.515Z,3.00
2022-09-28T18:11:36.494Z,3.30
2022-09-28T18:12:36.496Z,2.50
2022-09-28T18:13:36.480Z,2.10
2022-09-28T18:14:36.466Z,2.00
2022-09-28T18:15:36.516Z,2.30
2022-09-28T18:16:36.435Z,1.70
2022-09-28T18:17:36.430Z,1.90
2022-09-28T18:18:36.414Z,2.00
2022-09-28T18:19:36.398Z,2.10
2022-09-28T18:20:36.392Z,2.30
2022-09-28T18:21:36.388Z,2.20
2022-09-28T18:22:36.381Z,2.00
2022-09-28T18:23:36.361Z,2.40
2022-09-28T18:24:36.346Z,2.70
2022-09-28T18:25:36.357Z,2.00
2022-09-28T18:26:36.330Z,2.30
2022-09-28T18:27:36.322Z,1.70
2022-09-28T18:28:36.290Z,1.50
2022-09-28T18:29:36.277Z,2.20
2022-09-28T18:30:36.272Z,2.60
2022-09-28T18:31:36.255Z,2.40
2022-09-28T18:32:36.244Z,2.40
2022-09-28T18:33:36.242Z,2.20
2022-09-28T18:34:36.246Z,2.20
2022-09-28T18:35:36.205Z,2.00
2022-09-28T18:36:36.211Z,2.20
2022-09-28T18:37:37.159Z,1.90
2022-09-28T18:38:36.201Z,2.30
2022-09-28T18:39:36.168Z,2.00
2022-09-28T18:40:36.220Z,1.50
2022-09-28T18:41:36.146Z,2.20
2022-09-28T18:42:36.131Z,2.20
2022-09-28T18:43:36.563Z,1.70
2022-09-28T18:44:36.099Z,1.40
2022-09-28T18:45:36.084Z,2.10
2022-09-28T18:46:36.269Z,2.60
2022-09-28T18:47:36.070Z,2.80
2022-09-28T18:48:36.070Z,2.20
2022-09-28T18:49:36.054Z,1.70
2022-09-28T18:50:36.034Z,1.60
2022-09-28T18:51:36.024Z,1.30
2022-09-28T18:52:36.046Z,1.50
2022-09-28T18:53:36.009Z,1.80
2022-09-28T18:54:35.992Z,1.50
2022-09-28T18:55:35.971Z,1.50
2022-09-28T18:56:35.979Z,1.40
2022-09-28T18:57:35.940Z,2.00
2022-09-28T18:58:35.950Z,2.00
2022-09-28T18:59:35.918Z,1.40
2022-09-28T19:00:35.928Z,1.30
2022-09-28T19:01:36.007Z,1.40
2022-09-28T19:02:36.012Z,1.60
2022-09-28T19:03:35.887Z,1.30
2022-09-28T19:04:35.868Z,1.40
2022-09-28T19:05:35.846Z,1.30
2022-09-28T19:06:35.836Z,1.20
2022-09-28T19:07:35.818Z,1.20
2022-09-28T19:08:35.828Z,1.50
2022-09-28T19:09:35.800Z,2.40
2022-09-28T19:10:35.802Z,2.10
2022-09-28T19:11:35.767Z,2.60
2022-09-28T19:12:35.781Z,1.30
2022-09-28T19:13:35.750Z,1.30
2022-09-28T19:14:35.752Z,1.50
2022-09-28T19:15:35.777Z,1.00
2022-09-28T19:16:35.739Z,1.30
2022-09-28T19:17:35.695Z,1.20
2022-09-28T19:18:35.689Z,1.50
2022-09-28T19:19:35.692Z,1.30
2022-09-28T19:20:35.669Z,1.60
2022-09-28T19:21:35.728Z,2.20
2022-09-28T19:22:35.661Z,1.50
2022-09-28T19:23:35.624Z,1.40
2022-09-28T19:24:35.628Z,1.60
2022-09-28T19:25:35.606Z,1.70
2022-09-28T19:26:35.591Z,2.00
2022-09-28T19:27:35.576Z,1.90
2022-09-28T19:28:35.571Z,2.10
2022-09-28T19:29:35.577Z,2.40
2022-09-28T19:30:35.588Z,1.70
2022-09-28T19:31:35.530Z,1.70
2022-09-28T19:32:35.518Z,2.00
2022-09-28T19:33:35.541Z,1.50
2022-09-28T19:34:35.519Z,1.60
2022-09-28T19:35:35.504Z,1.70
2022-09-28T19:36:35.478Z,2.00
2022-09-28T19:37:35.457Z,2.10
2022-09-28T19:38:35.466Z,1.80
2022-09-28T19:39:35.464Z,2.00
2022-09-28T19:40:35.518Z,2.20
2022-09-28T19:41:39.145Z,2.30
2022-09-28T19:42:35.424Z,2.10
2022-09-28T19:43:35.386Z,2.20
2022-09-28T19:44:35.392Z,2.40
2022-09-28T19:45:35.366Z,1.90
2022-09-28T19:46:35.414Z,1.40
2022-09-28T19:47:35.338Z,1.30
2022-09-28T19:48:35.327Z,1.00
2022-09-28T19:49:35.341Z,1.20
2022-09-28T19:50:35.306Z,1.80
2022-09-28T19:51:35.294Z,2.30
2022-09-28T19:52:35.285Z,2.40
2022-09-28T19:53:35.262Z,2.90
2022-09-28T19:54:36.691Z,3.20
2022-09-28T19:55:35.250Z,3.10
2022-09-28T19:56:35.235Z,3.50
2022-09-28T19:57:35.234Z,3.40
2022-09-28T19:58:35.231Z,1.60
2022-09-28T19:59:35.194Z,1.70
2022-09-28T20:00:35.214Z,1.90
2022-09-28T20:01:35.226Z,1.90
2022-09-28T20:02:35.262Z,1.90
2022-09-28T20:03:35.166Z,2.00
2022-09-28T20:04:35.156Z,1.70
2022-09-28T20:05:35.126Z,1.70
2022-09-28T20:06:35.104Z,1.30
2022-09-28T20:07:35.136Z,1.40
2022-09-28T20:08:35.083Z,1.10
2022-09-28T20:09:35.073Z,1.40
2022-09-28T20:10:35.097Z,1.40
2022-09-28T20:11:35.047Z,1.00
2022-09-28T20:12:35.037Z,1.40
2022-09-28T20:13:35.029Z,1.00
2022-09-28T20:14:38.231Z,1.20
2022-09-28T20:15:35.051Z,0.80
2022-09-28T20:16:34.985Z,1.20
2022-09-28T20:17:34.974Z,1.30
2022-09-28T20:18:34.963Z,1.20
2022-09-28T20:19:35.045Z,1.00
2022-09-28T20:20:34.962Z,0.60
2022-09-28T20:21:34.928Z,1.00
2022-09-28T20:22:34.930Z,1.00
2022-09-28T20:23:34.901Z,1.00
2022-09-28T20:24:34.894Z,0.80
2022-09-28T20:25:34.899Z,1.00
2022-09-28T20:26:34.925Z,1.10
2022-09-28T20:27:34.878Z,1.10
2022-09-28T20:28:34.840Z,1.20
2022-09-28T20:29:34.830Z,0.90
2022-09-28T20:30:34.819Z,1.10
2022-09-28T20:31:34.940Z,1.00
2022-09-28T20:32:34.795Z,1.50
2022-09-28T20:33:34.792Z,2.00
2022-09-28T20:34:34.776Z,1.10
2022-09-28T20:35:34.758Z,0.80
2022-09-28T20:36:34.760Z,1.60
2022-09-28T20:37:34.743Z,1.30
2022-09-28T20:38:34.722Z,1.80
2022-09-28T20:39:34.715Z,1.80
2022-09-28T20:40:34.750Z,1.70
2022-09-28T20:41:34.719Z,1.80
2022-09-28T20:42:34.680Z,1.80
2022-09-28T20:43:34.662Z,1.70
2022-09-28T20:44:34.651Z,1.10
2022-09-28T20:45:34.648Z,0.60
2022-09-28T20:46:34.796Z,1.30
2022-09-28T20:47:34.620Z,0.60
2022-09-28T20:48:34.605Z,1.20
2022-09-28T20:49:34.595Z,0.90
2022-09-28T20:50:34.577Z,0.80
2022-09-28T20:51:34.580Z,1.10
2022-09-28T20:52:34.562Z,1.10
2022-09-28T20:53:34.544Z,1.30
2022-09-28T20:54:34.536Z,0.90
2022-09-28T20:55:34.515Z,1.10
2022-09-28T20:56:34.513Z,1.00
2022-09-28T20:57:34.509Z,1.00
2022-09-28T20:58:34.493Z,1.00
2022-09-28T20:59:34.470Z,0.70
2022-09-28T21:00:34.458Z,0.80
2022-09-28T21:01:34.506Z,0.80
2022-09-28T21:02:34.506Z,0.80
2022-09-28T21:03:34.433Z,1.00
2022-09-28T21:04:34.410Z,0.80
2022-09-28T21:05:34.408Z,1.00
2022-09-28T21:06:34.387Z,0.80
2022-09-28T21:07:34.378Z,0.80
2022-09-28T21:08:34.360Z,1.20
2022-09-28T21:09:34.348Z,0.70
2022-09-28T21:10:34.345Z,1.20
2022-09-28T21:11:34.359Z,0.70
2022-09-28T21:12:34.325Z,0.80
2022-09-28T21:13:34.296Z,0.60
2022-09-28T21:14:34.302Z,1.00
2022-09-28T21:15:34.398Z,0.90
2022-09-28T21:16:34.263Z,0.80
2022-09-28T21:17:34.266Z,0.90
2022-09-28T21:18:34.258Z,0.70
2022-09-28T21:19:34.228Z,0.60
2022-09-28T21:20:34.217Z,0.80
2022-09-28T21:21:34.242Z,0.70
2022-09-28T21:22:34.191Z,1.00
2022-09-28T21:23:34.181Z,0.60
2022-09-28T21:24:34.171Z,0.80
2022-09-28T21:25:34.166Z,0.80
2022-09-28T21:26:34.136Z,0.60
2022-09-28T21:27:34.169Z,0.70
2022-09-28T21:28:34.121Z,0.60
2022-09-28T21:29:34.111Z,0.80
2022-09-28T21:30:34.091Z,0.90
2022-09-28T21:31:34.125Z,0.80
2022-09-28T21:32:34.081Z,0.80
2022-09-28T21:33:34.058Z,0.90
2022-09-28T21:34:34.044Z,0.70
2022-09-28T21:35:34.038Z,0.60
2022-09-28T21:36:34.019Z,0.60
2022-09-28T21:37:34.039Z,0.90
2022-09-28T21:38:34.003Z,0.80
2022-09-28T21:39:33.987Z,0.90
2022-09-28T21:40:34.044Z,0.90
2022-09-28T21:41:33.957Z,0.90
2022-09-28T21:42:33.963Z,0.80
2022-09-28T21:43:33.940Z,0.60
2022-09-28T21:44:33.925Z,0.70
2022-09-28T21:45:33.912Z,0.70
2022-09-28T21:46:34.018Z,0.90
2022-09-28T21:47:33.885Z,0.80
2022-09-28T21:48:33.881Z,0.70
2022-09-28T21:49:33.863Z,0.60
2022-09-28T21:50:33.854Z,0.80
2022-09-28T21:51:33.841Z,0.80
2022-09-28T21:52:33.855Z,0.60
2022-09-28T21:53:33.826Z,0.60
2022-09-28T21:54:33.807Z,0.60
2022-09-28T21:55:33.825Z,0.90
2022-09-28T21:56:33.795Z,0.80
2022-09-28T21:57:33.764Z,0.90
2022-09-28T21:58:33.758Z,0.90
2022-09-28T21:59:33.754Z,1.00
2022-09-28T22:00:33.736Z,1.00
2022-09-28T22:01:33.771Z,0.90
2022-09-28T22:02:33.762Z,1.10
2022-09-28T22:03:33.712Z,0.80
2022-09-28T22:04:33.679Z,0.90
2022-09-28T22:05:33.681Z,0.90
2022-09-28T22:06:33.655Z,1.00
2022-09-28T22:07:33.655Z,0.90
2022-09-28T22:08:33.641Z,0.80
2022-09-28T22:09:33.637Z,0.80
2022-09-28T22:10:33.606Z,0.90
2022-09-28T22:11:33.602Z,0.80
2022-09-28T22:12:33.583Z,0.80
2022-09-28T22:13:33.582Z,1.00
2022-09-28T22:14:33.585Z,0.80
2022-09-28T22:15:33.617Z,0.90
2022-09-28T22:16:33.533Z,0.70
2022-09-28T22:17:33.535Z,0.80
2022-09-28T22:18:33.518Z,0.90
2022-09-28T22:19:33.507Z,1.00
2022-09-28T22:20:33.483Z,1.00
2022-09-28T22:21:33.484Z,0.90
2022-09-28T22:22:33.461Z,0.80
2022-09-28T22:23:33.489Z,1.10
2022-09-28T22:24:33.442Z,0.90
2022-09-28T22:25:33.429Z,1.00
2022-09-28T22:26:33.434Z,1.40
2022-09-28T22:27:33.411Z,1.20
2022-09-28T22:28:33.399Z,1.10
2022-09-28T22:29:33.385Z,1.10
2022-09-28T22:30:33.388Z,1.20
2022-09-28T22:31:33.452Z,0.90
2022-09-28T22:32:33.356Z,0.80
2022-09-28T22:33:33.360Z,0.90
2022-09-28T22:34:33.341Z,0.80
2022-09-28T22:35:33.313Z,1.10
2022-09-28T22:36:33.300Z,1.00
2022-09-28T22:37:33.280Z,1.00
2022-09-28T22:38:33.269Z,0.90
2022-09-28T22:39:37.470Z,1.20
2022-09-28T22:40:33.329Z,0.90
2022-09-28T22:41:33.234Z,1.10
2022-09-28T22:42:39.741Z,1.00
2022-09-28T22:43:33.214Z,1.20
2022-09-28T22:44:33.209Z,0.90
2022-09-28T22:45:33.212Z,0.80
2022-09-28T22:46:33.219Z,0.90
2022-09-28T22:47:33.166Z,0.80
2022-09-28T22:48:33.152Z,0.80
2022-09-28T22:49:33.155Z,1.30
2022-09-28T22:50:33.132Z,1.00
2022-09-28T22:51:33.117Z,1.10
2022-09-28T22:52:33.108Z,1.20
2022-09-28T22:53:33.085Z,1.20
2022-09-28T22:54:33.077Z,1.30
2022-09-28T22:55:33.059Z,0.90
2022-09-28T22:56:33.073Z,1.30
2022-09-28T22:57:33.039Z,1.20
2022-09-28T22:58:33.024Z,1.00
2022-09-28T22:59:33.017Z,1.20
2022-09-28T23:00:32.994Z,1.10
2022-09-28T23:01:33.036Z,1.30
2022-09-28T23:02:33.088Z,1.30
2022-09-28T23:03:32.964Z,1.20
2022-09-28T23:04:32.967Z,1.20
2022-09-28T23:05:32.947Z,1.00
2022-09-28T23:06:32.923Z,1.20
2022-09-28T23:07:32.917Z,1.40
2022-09-28T23:08:32.928Z,1.20
2022-09-28T23:09:32.897Z,1.40
2022-09-28T23:10:32.879Z,1.10
2022-09-28T23:11:32.911Z,1.20
2022-09-28T23:12:32.871Z,1.20
2022-09-28T23:13:32.847Z,1.00
2022-09-28T23:14:32.844Z,1.00
2022-09-28T23:15:32.814Z,1.00
2022-09-28T23:16:32.845Z,1.20
2022-09-28T23:17:32.807Z,1.20
2022-09-28T23:18:32.778Z,1.00
2022-09-28T23:19:32.778Z,1.10
2022-09-28T23:20:32.772Z,1.00
2022-09-28T23:21:32.748Z,1.00
2022-09-28T23:22:32.743Z,0.80
2022-09-28T23:23:32.730Z,1.00
2022-09-28T23:24:32.718Z,1.10
2022-09-28T23:25:32.716Z,1.40
2022-09-28T23:26:32.705Z,1.40
2022-09-28T23:27:32.699Z,1.20
2022-09-28T23:28:32.670Z,0.80
2022-09-28T23:29:32.646Z,0.90
2022-09-28T23:30:32.627Z,1.20
2022-09-28T23:31:32.698Z,1.50
2022-09-28T23:32:32.613Z,1.30
2022-09-28T23:33:32.611Z,1.20
2022-09-28T23:34:32.593Z,1.10
2022-09-28T23:35:32.576Z,1.30
2022-09-28T23:36:32.573Z,1.10
2022-09-28T23:37:32.564Z,1.00
2022-09-28T23:38:32.538Z,0.90
2022-09-28T23:39:32.538Z,1.00
2022-09-28T23:40:32.590Z,1.00
2022-09-28T23:41:32.516Z,1.10
2022-09-28T23:42:32.485Z,1.10
2022-09-28T23:43:32.493Z,1.10
2022-09-28T23:44:32.461Z,1.10
2022-09-28T23:45:32.449Z,1.10
2022-09-28T23:46:32.500Z,1.00
2022-09-28T23:47:32.439Z,1.30
2022-09-28T23:48:32.414Z,1.30
2022-09-28T23:49:32.404Z,1.10
2022-09-28T23:50:32.390Z,1.20
2022-09-28T23:51:32.391Z,1.10
2022-09-28T23:52:32.370Z,1.20
2022-09-28T23:53:32.363Z,1.10
2022-09-28T23:54:32.366Z,1.10
2022-09-28T23:55:32.348Z,1.20
2022-09-28T23:56:32.336Z,1.30
2022-09-28T23:57:32.305Z,1.00
2022-09-28T23:58:32.301Z,1.10
2022-09-28T23:59:32.285Z,1.00
